Tiempo atmosférico en la estación meteorológica de Santervás de la Vega, Villapún, Palencia (985 m.)



Fecha
DESCASC
Temp. máxima en grados centígrados (hora)
DESCASC
Temp. mínima en grados centígrados (hora)
DESCASC
Temp. media en grados centígrados
DESCASC
Racha de viento máxima en m/sg (hora)
DESCASC
Velocidad máxima media en intervalos de 10 minutos(hora)
DESCASC
Precipitaciones diarias en mm
DESCASC
Precipitaciones de 00:00 a 06:00 en mm
DESCASC
Precipitaciones de 06:00 a 12:00 en mm
DESCASC
Precipitaciones de 12:00 a 18:00 en mm
DESCASC
Precipitaciones de 18:00 a 24:00 en mm
DESCASC
19-09-2019 24.1 (17:20) 10.5 (06:10) 17.3 6.67 (14:10) 3.89 (16:50) 0 0 0 0 0
18-09-2019 23.4 (16:30) 12.6 (01:00) 18 8.89 (00:10) 5.28 (05:50) 9.6 9.4 0.2 0 0
17-09-2019 26.2 (17:40) 13.9 (00:00) 20.1 13.33 (23:40) 9.44 (23:40) 0 0 0 0 0
16-09-2019 24.3 (17:50) 12.3 (00:00) 18.3 9.17 (12:30) 5.83 (19:00) 0 0 0 0 0
15-09-2019 23.1 (13:40) 14.2 (00:00) 18.7 10.56 (12:00) 7.5 (14:20) 1 0 0 1 0
14-09-2019 25.7 (16:20) 14.8 (00:00) 20.3 14.17 (13:40) 7.5 (15:10) 0 0 0 0 0
13-09-2019 26.3 (15:30) 11.7 (00:00) 19 14.17 (17:50) 8.89 (17:50) 0 0 0 0 0
12-09-2019 26.5 (17:30) 8.8 (00:00) 17.7 8.61 (01:50) 5.83 (01:50) 0 0 0 0 0
11-09-2019 19.4 (16:50) 4.3 (00:00) 11.8 12.5 (16:20) 8.61 (19:40) 0 0 0 0 0
10-09-2019 16.6 (18:20) 5 (06:40) 10.8 15.28 (15:50) 8.61 (14:50) 0 0 0 0 0
09-09-2019 23.1 (16:40) 7.5 (07:20) 15.3 10.28 (17:10) 5.83 (16:40) 0 0 0 0 0
08-09-2019 22.8 (16:30) 6.1 (00:00) 14.4 8.61 (14:10) 4.72 (19:50) 0 0 0 0 0
07-09-2019 21.4 (16:00) 4.3 (00:00) 12.8 12.5 (13:10) 7.78 (14:10) 0 0 0 0 0
06-09-2019 18.1 (16:40) 5.5 (00:00) 11.8 13.33 (15:40) 9.17 (18:30) 0 0 0 0 0
05-09-2019 20 (15:30) 5.1 (00:00) 12.5 14.17 (18:00) 8.61 (18:00) 0 0 0 0 0
04-09-2019 26.7 (15:30) 8.1 (00:00) 17.4 10.28 (19:00) 6.94 (18:20) 0 0 0 0 0
03-09-2019 27.4 (18:30) 7.4 (00:00) 17.4 8.89 (00:20) 5.28 (00:20) 0 0 0 0 0
02-09-2019 22.5 (16:50) 9.5 (00:00) 16 11.39 (12:50) 7.22 (10:50) 0 0 0 0 0
01-09-2019 25.1 (16:10) 12.3 (00:00) 18.7 12.5 (19:00) 8.89 (19:00) 0 0 0 0 0
31-08-2019 30.8 (17:10) 13.2 (00:00) 22 11.39 (15:20) 6.11 (16:40) 0 0 0 0 0
30-08-2019 29.9 (15:40) 14.2 (00:00) 22 10.28 (15:10) 5.83 (15:10) 0 0 0 0 0
29-08-2019 29.6 (16:50) 14.5 (00:00) 22.1 9.44 (14:20) 5.28 (14:20) 0 0 0 0 0
28-08-2019 27.9 (17:40) 12.9 (00:00) 20.4 9.72 (15:00) 5.83 (13:30) 0 0 0 0 0
27-08-2019 25.4 (18:00) 11.5 (00:00) 18.4 6.67 (14:40) 3.89 (00:30) 0 0 0 0 0
26-08-2019 24.5 (17:20) 13.8 (00:00) 19.2 15 (21:30) 6.94 (21:30) 5.6 0.6 0 0 5
25-08-2019 29.3 (16:30) 15.5 (00:00) 22.4 19.17 (17:10) 9.72 (17:10) 2.8 0 0 1.4 1.4
24-08-2019 31.3 (16:00) 15.4 (00:00) 23.3 13.89 (15:30) 5.83 (15:20) 0 0 0 0 0
23-08-2019 31 (17:20) 13 (00:00) 22 7.22 (15:50) 4.44 (03:10) 0 0 0 0 0

Gráficas

Temp. máximas Temp. mínimas Temp. medias Precipitaciones Rachas de viento máximas Velocidades máximas media en intervalos de 10 minutos

Datos horarios

Fecha y hora oficial Temperatura (ºC) Velocidad del viento (km/h) Dirección del viento Racha (km/h) Dirección de racha Precipitación (mm) Presión (hPa) Tendencia (hPa) Humedad (%)
2019-09-21 23:00:00 14.5 16 Sudoeste 30 Oeste 0.6 -- -- 98
2019-09-21 22:00:00 14.5 21 Oeste 41 Oeste 0.2 -- -- 97
2019-09-21 21:00:00 14.6 11 Oeste 28 Oeste 0.2 -- -- 98
2019-09-21 20:00:00 14.7 17 Oeste 30 Oeste 4.2 -- -- 98
2019-09-21 19:00:00 15.1 11 Oeste 24 Sudoeste 1.2 -- -- 97
2019-09-21 18:00:00 14.9 15 Sudoeste 30 Sudoeste 0 -- -- 97
2019-09-21 17:00:00 14.1 15 Oeste 32 Sudoeste 0.2 -- -- 98
2019-09-21 16:00:00 14.4 15 Oeste 31 Oeste 0.4 -- -- 97
2019-09-21 15:00:00 14.4 20 Oeste 35 Oeste 0.2 -- -- 96
2019-09-21 14:00:00 14.7 21 Oeste 34 Oeste 0.2 -- -- 94
2019-09-21 13:00:00 15.8 21 Oeste 32 Sudoeste 0 -- -- 84
2019-09-21 12:00:00 15.8 16 Oeste 24 Oeste 0 -- -- 84
2019-09-21 11:00:00 15 8 Sudoeste 16 Sudoeste 0 -- -- 91
2019-09-21 10:00:00 14.1 8 Sudoeste 13 Sudoeste 0 -- -- 93
2019-09-21 09:00:00 13.4 6 Sudoeste 11 Sudoeste 0 -- -- 95
2019-09-21 08:00:00 13.2 8 Oeste 19 Oeste 0 -- -- 93
2019-09-21 07:00:00 13.7 13 Oeste 20 Oeste 0 -- -- 94
2019-09-21 06:00:00 14 6 Sudoeste 10 Sudoeste 0.2 -- -- 97
2019-09-21 05:00:00 14 5 Sudoeste 12 Sudoeste 0.6 -- -- 97
2019-09-21 04:00:00 13.9 6 Sur 15 Sur 0 -- -- 98
2019-09-21 03:00:00 13.8 7 Sudeste 20 Sudeste 0 -- -- 98
2019-09-21 02:00:00 14 12 Sudeste 18 Sudeste 0 -- -- 97
2019-09-21 01:00:00 14.5 7 Sudeste 26 Sur 1.6 -- -- 95
2019-09-21 00:00:00 14.7 8 Este 13 Nordeste 0 -- -- 94
2019-09-20 23:00:00 15 7 Este 12 Nordeste 0 -- -- 93
2019-09-20 22:00:00 15.3 10 Nordeste 18 Sur 3.8 -- -- 92
2019-09-20 21:00:00 15.8 14 Este 21 Nordeste 0 -- -- 89
2019-09-20 20:00:00 17.1 10 Este 32 Este 1.8 -- -- 81
2019-09-20 19:00:00 20.7 20 Sudeste 33 Sur 0 -- -- 52
2019-09-20 18:00:00 24.6 14 Oeste 33 Oeste 0 -- -- 41
2019-09-20 17:00:00 24.9 16 Sudoeste 37 Oeste 0 -- -- 43
2019-09-20 16:00:00 24.3 15 Sudoeste 34 Sur 0 -- -- 46
2019-09-20 15:00:00 24.1 15 Sudoeste 28 Sur 0 -- -- 46
2019-09-20 14:00:00 22.3 12 Sur 26 Sur 0 -- -- 59
2019-09-20 13:00:00 21.1 13 Sur 21 Sudeste 0 -- -- 63
2019-09-20 12:00:00 20 12 Sudeste 19 Sudeste 0 -- -- 69
2019-09-20 11:00:00 15.9 10 Este 15 Este 0 -- -- 87
2019-09-20 10:00:00 15.7 8 Este 15 Este 0 -- -- 86
2019-09-20 09:00:00 13.8 8 Este 12 Nordeste 0 -- -- 93
2019-09-20 08:00:00 12.5 10 Este 14 Nordeste 0 -- -- 93
2019-09-20 07:00:00 12.8 10 Nordeste 15 Nordeste 0 -- -- 92
2019-09-20 06:00:00 13.2 11 Nordeste 13 Nordeste 0 -- -- 91
2019-09-20 05:00:00 13.3 12 Nordeste 15 Nordeste 0 -- -- 92
2019-09-20 04:00:00 13.8 11 Nordeste 13 Nordeste 0 -- -- 89
2019-09-20 03:00:00 13.8 9 Nordeste 13 Nordeste 0 -- -- 90
2019-09-20 02:00:00 14.3 11 Nordeste 14 Nordeste 0 -- -- 88
2019-09-20 01:00:00 14.8 12 Nordeste 14 Este 0 -- -- 87
2019-09-20 00:00:00 14.8 9 Este 11 Este 0 -- -- 86
2019-09-19 23:00:00 15.5 7 Este 10 Nordeste 0 -- -- 81
2019-09-19 22:00:00 16.6 7 Este 9 Este 0 -- -- 71
2019-09-19 21:00:00 17.5 0 Calma 9 Sur 0 -- -- 64
2019-09-19 20:00:00 22.1 6 Sur 14 Sur 0 -- -- 49
2019-09-19 19:00:00 23.3 8 Sur 17 Sur 0 -- -- 46
2019-09-19 18:00:00 23.8 11 Sudeste 20 Sudeste 0 -- -- 44
2019-09-19 17:00:00 23.9 9 Sudeste 22 Sudeste 0 -- -- 42
2019-09-19 16:00:00 23.8 12 Sudeste 22 Sudeste 0 -- -- 38
2019-09-19 15:00:00 23.1 7 Sudeste 24 Sudeste 0 -- -- 38
2019-09-19 14:00:00 22.6 8 Sudeste 21 Sudeste 0 -- -- 43
2019-09-19 13:00:00 21.5 8 Este 16 Este 0 -- -- 45
2019-09-19 12:00:00 20.3 8 Sudeste 17 Este 0 -- -- 46
2019-09-19 11:00:00 18.1 9 Este 13 Este 0 -- -- 61
2019-09-19 10:00:00 15.5 7 Este 12 Nordeste 0 -- -- 87
2019-09-19 09:00:00 12.3 11 Nordeste 14 Nordeste 0 -- -- 93
2019-09-19 08:00:00 10.9 7 Nordeste 10 Nordeste 0 -- -- 97
2019-09-19 07:00:00 10.7 7 Este 8 Este 0 -- -- 96
2019-09-19 06:00:00 10.7 0 Calma 5 Este 0 -- -- 96
2019-09-19 05:00:00 12.4 4 Este 10 Este 0 -- -- 95
2019-09-19 04:00:00 12.8 6 Nordeste 11 Nordeste 0 -- -- 95
2019-09-19 03:00:00 13.2 8 Nordeste 10 Este 0 -- -- 95
2019-09-19 02:00:00 13.4 6 Este 11 Nordeste 0 -- -- 95
2019-09-19 01:00:00 14.5 5 Este 12 Este 0 -- -- 90
2019-09-19 00:00:00 15.7 3 Sudeste 10 Este 0 -- -- 85
2019-09-18 23:00:00 16.6 5 Este 10 Este 0 -- -- 83
2019-09-18 22:00:00 17.6 6 Sudeste 14 Sudeste 0 -- -- 79
2019-09-18 21:00:00 18.3 8 Este 13 Este 0 -- -- 75
2019-09-18 20:00:00 19.8 6 Este 14 Este 0 -- -- 65
2019-09-18 19:00:00 21.7 9 Este 22 Este 0 -- -- 57
2019-09-18 18:00:00 22.1 13 Este 23 Sudeste 0 -- -- 59
2019-09-18 17:00:00 22.6 12 Sudeste 18 Sudeste 0 -- -- 57
2019-09-18 16:00:00 21.9 8 Este 19 Sudeste 0 -- -- 55
2019-09-18 15:00:00 22 8 Sudeste 17 Nordeste 0 -- -- 54
2019-09-18 14:00:00 21.3 7 Sudeste 20 Sudeste 0 -- -- 63
2019-09-18 13:00:00 19.5 8 Este 19 Este 0 -- -- 68
2019-09-18 12:00:00 19.4 9 Nordeste 15 Este 0 -- -- 67
2019-09-18 11:00:00 15.8 8 Nordeste 12 Nordeste 0 -- -- 93
2019-09-18 10:00:00 14.4 3 Noroeste 8 Norte 0 -- -- 96
2019-09-18 09:00:00 13.4 3 Noroeste 15 Oeste 0 -- -- 99
2019-09-18 08:00:00 13 7 Sudoeste 19 Sudoeste 0.2 -- -- 97
2019-09-18 07:00:00 13.9 8 Sur 25 Nordeste 0 -- -- 93
2019-09-18 06:00:00 13.7 16 Nordeste 24 Nordeste 0.6 -- -- 94
2019-09-18 05:00:00 13.4 13 Nordeste 23 Este 0.8 -- -- 95
2019-09-18 04:00:00 13.3 15 Este 26 Nordeste 0.2 -- -- 95
2019-09-18 03:00:00 13 13 Nordeste 22 Nordeste 1.6 -- -- 96
2019-09-18 02:00:00 12.9 9 Norte 20 Norte 3.2 -- -- 96
2019-09-18 01:00:00 12.6 10 Noroeste 32 Noroeste 3 -- -- 96
2019-09-18 00:00:00 14.4 20 Noroeste 48 Oeste 0 -- -- 86
2019-09-17 23:00:00 18.5 14 Este 22 Este 0 -- -- 77
2019-09-17 22:00:00 19.6 13 Este 24 Este 0 -- -- 73
2019-09-17 21:00:00 19.9 14 Este 22 Este 0 -- -- 72
2019-09-15 18:00:00 -- -- -- -- -- -- -- -- --
2019-09-15 17:00:00 -- -- -- -- -- -- -- -- --
2019-09-15 16:00:00 16.9 10 Este 22 Sur 0.6 -- -- 85
2019-09-15 15:00:00 16.4 10 Sudoeste 38 Sur 0.4 -- -- 84
2019-09-15 14:00:00 22.8 18 Sudeste 36 Sudeste 0 -- -- 47
2019-09-15 13:00:00 22 19 Este 36 Este 0 -- -- 47
2019-09-15 12:00:00 19.9 23 Este 38 Este 0 -- -- 54
2019-09-15 11:00:00 19.9 17 Este 26 Sudeste 0 -- -- 53
2019-09-15 10:00:00 17.9 15 Este 26 Sudeste 0 -- -- 61
2019-09-15 09:00:00 16.8 13 Este 22 Este 0 -- -- 65
2019-09-15 08:00:00 16.7 14 Este 27 Este 0 -- -- 66
2019-09-15 07:00:00 16.7 14 Este 23 Este 0 -- -- 68
2019-09-15 06:00:00 16.5 15 Este 24 Este 0 -- -- 70
2019-09-15 05:00:00 15.6 12 Este 19 Este 0 -- -- 76
2019-09-15 04:00:00 14.4 9 Este 14 Este 0 -- -- 82
2019-09-15 03:00:00 14.4 11 Este 18 Este 0 -- -- 84
2019-09-15 02:00:00 16 10 Este 20 Este 0 -- -- 75
2019-09-15 01:00:00 17.2 12 Sudeste 17 Sudeste 0 -- -- 64
2019-09-15 00:00:00 16.9 8 Este 12 Este 0 -- -- 69
2019-09-14 23:00:00 16.4 6 Nordeste 8 Nordeste 0 -- -- 70
2019-09-14 22:00:00 17.9 4 Sudeste 20 Sur 0 -- -- 66
2019-09-14 21:00:00 20.4 15 Sur 35 Sudeste 0 -- -- 55
2019-09-14 20:00:00 22.6 18 Sudeste 39 Este 0 -- -- 44
2019-09-14 19:00:00 24.2 21 Sudeste 40 Este 0 -- -- 38
2019-09-14 18:00:00 25.2 24 Este 41 Sudeste 0 -- -- 35
2019-09-14 17:00:00 25.2 23 Sudeste 39 Sudeste 0 -- -- 36
2019-09-14 16:00:00 25.2 23 Sudeste 46 Este 0 -- -- 38
2019-09-14 15:00:00 24.9 25 Sudeste 44 Sudeste 0 -- -- 40
2019-09-14 14:00:00 23.3 24 Este 51 Este 0 -- -- 43
2019-09-14 13:00:00 23.2 20 Este 31 Este 0 -- -- 45
2019-09-14 12:00:00 21.5 16 Este 26 Este 0 -- -- 53
2019-09-14 11:00:00 19.5 14 Este 27 Este 0 -- -- 62
2019-09-14 10:00:00 16.8 15 Este 24 Este 0 -- -- 72
2019-09-14 09:00:00 15.3 15 Este 25 Este 0 -- -- 77
2019-09-14 08:00:00 15.4 12 Este 22 Este 0 -- -- 73
2019-09-14 07:00:00 16 14 Este 25 Este 0 -- -- 69
2019-09-14 06:00:00 -- -- -- -- -- -- -- -- --
2019-09-14 05:00:00 -- -- -- -- -- -- -- -- --
2019-09-14 04:00:00 16.4 15 Este 23 Este 0 -- -- 68
2019-09-14 03:00:00 14.8 10 Este 19 Este 0 -- -- 75
2019-09-14 02:00:00 16 12 Este 23 Sudeste 0 -- -- 71
2019-09-14 01:00:00 16.8 14 Este 29 Este 0 -- -- 71
2019-09-14 00:00:00 17.3 15 Este 27 Este 0 -- -- 71
2019-09-13 23:00:00 17.4 16 Este 27 Sudeste 0 -- -- 68
2019-09-13 22:00:00 18.1 15 Este 25 Este 0 -- -- 67
2019-09-13 21:00:00 18.6 9 Este 25 Sudeste 0 -- -- 51
2019-09-13 20:00:00 20.9 17 Sudeste 28 Sudeste 0 -- -- 45
2019-09-13 19:00:00 21.7 22 Sudeste 48 Sudeste 0 -- -- 42
2019-09-13 18:00:00 24 28 Sudeste 51 Sudeste 0 -- -- 39
2019-09-13 17:00:00 24.7 31 Sudeste 48 Sudeste 0 -- -- 38
2019-09-13 16:00:00 26.1 28 Este 45 Sudeste 0 -- -- 32
2019-09-13 15:00:00 26 25 Este 40 Este 0 -- -- 33
2019-09-13 14:00:00 25.6 23 Sudeste 35 Sudeste 0 -- -- 33
2019-09-13 13:00:00 24.7 23 Sudeste 36 Sudeste 0 -- -- 35
2019-09-13 12:00:00 23.9 15 Este 26 Este 0 -- -- 34
2019-09-13 11:00:00 21.6 18 Este 27 Este 0 -- -- 39
2019-09-13 10:00:00 18.2 16 Este 24 Este 0 -- -- 42
2019-09-13 09:00:00 14.2 14 Nordeste 18 Nordeste 0 -- -- 55
2019-09-13 08:00:00 12 12 Nordeste 15 Este 0 -- -- 65
2019-09-13 07:00:00 12.1 12 Nordeste 18 Este 0 -- -- 68
2019-09-13 06:00:00 12.9 14 Nordeste 16 Nordeste 0 -- -- 64
2019-09-13 05:00:00 13.7 12 Este 18 Este 0 -- -- 64
2019-09-13 04:00:00 14.5 6 Este 17 Este 0 -- -- 61
2019-09-13 03:00:00 15.1 9 Este 18 Este 0 -- -- 62
2019-09-13 02:00:00 15.8 11 Este 22 Este 0 -- -- 61
2019-09-13 01:00:00 16 12 Este 18 Este 0 -- -- 62
2019-09-13 00:00:00 16 10 Este 18 Este 0 -- -- 64
2019-09-12 23:00:00 16.6 8 Nordeste 22 Este 0 -- -- 62
2019-09-12 22:00:00 18.2 13 Este 24 Este 0 -- -- 62
2019-09-12 21:00:00 19.9 10 Este 22 Este 0 -- -- 51
2019-09-12 20:00:00 23.2 14 Sudeste 26 Sudeste 0 -- -- 39
2019-09-12 19:00:00 25.4 19 Sudeste 30 Sudeste 0 -- -- 31
2019-09-12 18:00:00 26.1 15 Este 28 Este 0 -- -- 27
2019-09-12 17:00:00 26.3 13 Sudeste 25 Sudeste 0 -- -- 30
2019-09-12 16:00:00 25.4 14 Este 27 Sudeste 0 -- -- 32
2019-09-12 15:00:00 24.8 9 Sudeste 22 Sudeste 0 -- -- 36
2019-09-12 14:00:00 22.7 14 Sudeste 24 Sudeste 0 -- -- 41
2019-09-12 13:00:00 20.7 13 Sudeste 24 Sudeste 0 -- -- 48
2019-09-12 12:00:00 18.9 16 Este 27 Este 0 -- -- 53
2019-09-12 11:00:00 16.4 13 Este 24 Este 0 -- -- 61
2019-09-12 10:00:00 13 12 Este 19 Nordeste 0 -- -- 75
2019-09-12 09:00:00 10.6 10 Este 19 Este 0 -- -- 83
2019-09-12 08:00:00 9 7 Este 22 Este 0 -- -- 86
2019-09-12 07:00:00 8.9 7 Este 23 Este 0 -- -- 86
2019-09-12 06:00:00 9.1 7 Sudeste 12 Sudeste 0 -- -- 85
2019-09-12 05:00:00 9.5 7 Este 15 Sudeste 0 -- -- 84
2019-09-12 04:00:00 9.9 6 Este 17 Sudeste 0 -- -- 82
2019-09-12 03:00:00 9.7 9 Este 25 Sudeste 0 -- -- 82
2019-09-12 02:00:00 11.1 18 Este 31 Sudeste 0 -- -- 75
2019-09-12 01:00:00 10.8 17 Este 28 Este 0 -- -- 77
2019-09-12 00:00:00 10.9 18 Sudeste 26 Este 0 -- -- 77
2019-09-11 23:00:00 11.2 8 Sudeste 22 Sudeste 0 -- -- 75
2019-09-11 22:00:00 12 16 Sudeste 32 Este 0 -- -- 73
2019-09-11 21:00:00 13 18 Sudeste 36 Este 0 -- -- 68
2019-09-11 20:00:00 15 26 Este 44 Sudeste 0 -- -- 60
2019-09-11 19:00:00 17.2 22 Este 37 Este 0 -- -- 54
2019-09-11 18:00:00 18.5 21 Este 35 Sudeste 0 -- -- 50
2019-09-11 17:00:00 19.4 26 Este 45 Sudeste 0 -- -- 46
2019-09-11 16:00:00 18.9 28 Este 44 Este 0 -- -- 46
2019-09-11 15:00:00 18.6 24 Este 42 Este 0 -- -- 48
2019-09-11 14:00:00 18.5 23 Sudeste 38 Sudeste 0 -- -- 47
2019-09-11 13:00:00 17.8 23 Este 40 Este 0 -- -- 48
2019-09-11 12:00:00 17.5 20 Este 37 Este 0 -- -- 47
2019-09-11 11:00:00 15.4 23 Este 40 Este 0 -- -- 53
2019-09-11 10:00:00 13 4 Norte 10 Sudeste 0 -- -- 65
2019-09-11 09:00:00 9.8 3 Noroeste 6 Norte 0 -- -- 85
2019-09-11 08:00:00 7.6 5 Norte 16 Nordeste 0 -- -- 84
2019-09-11 07:00:00 7.7 9 Nordeste 19 Nordeste 0 -- -- 84
2019-09-11 06:00:00 5.5 6 Norte 10 Noroeste 0 -- -- 94
2019-09-11 05:00:00 4.9 0 Calma 11 Norte 0 -- -- 92
2019-09-11 04:00:00 5.3 0 Calma 11 Sudoeste 0 -- -- 88
2019-09-11 03:00:00 7.1 8 Oeste 12 Sudoeste 0 -- -- 92
2019-09-11 02:00:00 6.5 7 Oeste 11 Oeste 0 -- -- 89
2019-09-11 01:00:00 6.9 6 Noroeste 12 Noroeste 0 -- -- 89
2019-09-11 00:00:00 7.9 0 Calma 9 Sudeste 0 -- -- 81
2019-09-10 23:00:00 10.3 6 Sur 20 Sudoeste 0 -- -- 76
2019-09-10 22:00:00 10.5 5 Oeste 9 Sudeste 0 -- -- 68
2019-09-10 21:00:00 12.8 5 Norte 46 Norte 0 -- -- 60
2019-09-10 20:00:00 14.3 20 Nordeste 45 Nordeste 0 -- -- 55
2019-09-10 19:00:00 15.4 19 Nordeste 48 Nordeste 0 -- -- 52
2019-09-10 18:00:00 16.3 22 Nordeste 43 Nordeste 0 -- -- 49
2019-09-10 17:00:00 16 21 Nordeste 48 Nordeste 0 -- -- 50
2019-09-10 16:00:00 15.7 23 Nordeste 55 Nordeste 0 -- -- 50
2019-09-10 15:00:00 15.3 27 Nordeste 50 Nordeste 0 -- -- 50
2019-09-10 14:00:00 14.2 20 Nordeste 44 Nordeste 0 -- -- 54
2019-09-10 13:00:00 12.8 24 Nordeste 43 Nordeste 0 -- -- 55
2019-09-10 12:00:00 11.1 13 Norte 35 Nordeste 0 -- -- 60
2019-09-10 11:00:00 12.1 9 Norte 24 Este 0 -- -- 57
2019-09-10 10:00:00 10.6 6 Nordeste 17 Oeste 0 -- -- 62
2019-09-10 09:00:00 7.5 6 Norte 15 Norte 0 -- -- 73
2019-09-10 08:00:00 5.8 5 Norte 12 Norte 0 -- -- 79
2019-09-10 07:00:00 5.3 0 Calma -- -- 0 -- -- 82
2019-09-10 06:00:00 5.4 0 Calma 10 Norte 0 -- -- 83
2019-09-10 05:00:00 6.8 3 Noroeste 25 Norte 0 -- -- 77
2019-09-10 04:00:00 8.2 15 Nordeste 28 Nordeste 0 -- -- 71
2019-09-10 03:00:00 8.6 5 Noroeste 28 Nordeste 0 -- -- 70
2019-09-10 02:00:00 10 7 Norte 23 Norte 0 -- -- 72
2019-09-10 01:00:00 11.6 4 Norte 23 Norte 0 -- -- 69
2019-09-10 00:00:00 13.2 12 Norte 28 Norte 0 -- -- 63
2019-09-09 23:00:00 13.6 14 Norte 31 Norte 0 -- -- 59
2019-09-09 22:00:00 14.8 13 Norte 25 Norte 0 -- -- 55
2019-09-09 21:00:00 16.7 9 Norte 23 Norte 0 -- -- 49
2019-09-09 20:00:00 19.5 12 Norte 29 Norte 0 -- -- 42
2019-09-09 19:00:00 22.5 14 Noroeste 32 Oeste 0 -- -- 29
2019-09-09 18:00:00 22.4 18 Oeste 37 Oeste 0 -- -- 30
2019-09-09 17:00:00 23 14 Noroeste 34 Oeste 0 -- -- 32
2019-09-09 16:00:00 21.5 15 Noroeste 29 Noroeste 0 -- -- 36
2019-09-09 15:00:00 21.5 18 Oeste 30 Noroeste 0 -- -- 35
2019-09-09 14:00:00 20.9 19 Noroeste 31 Noroeste 0 -- -- 37
2019-09-09 13:00:00 19.3 13 Oeste 22 Noroeste 0 -- -- 43
2019-09-09 12:00:00 18.3 10 Oeste 19 Oeste 0 -- -- 43
2019-09-09 11:00:00 16.7 6 Noroeste 10 Noroeste 0 -- -- 47
2019-09-09 10:00:00 12.9 5 Norte 9 Norte 0 -- -- 77
2019-09-09 09:00:00 11.4 5 Noroeste 12 Norte 0 -- -- 82
2019-09-09 08:00:00 9.3 8 Norte 13 Norte 0 -- -- 87
2019-09-09 07:00:00 8.3 7 Nordeste 10 Nordeste 0 -- -- 88
2019-09-09 06:00:00 8.7 6 Nordeste 13 Nordeste 0 -- -- 88
2019-09-09 05:00:00 8 9 Nordeste 12 Nordeste 0 -- -- 90
2019-09-09 04:00:00 7.6 8 Este 12 Nordeste 0 -- -- 89
2019-09-09 03:00:00 8.4 9 Este 11 Este 0 -- -- 87
2019-09-09 02:00:00 8.9 8 Este 12 Este 0 -- -- 87
2019-09-09 01:00:00 10.2 10 Este 14 Este 0 -- -- 84
2019-09-09 00:00:00 11.2 10 Este 15 Sudeste 0 -- -- 80
2019-09-08 23:00:00 12.5 11 Este 17 Este 0 -- -- 75
2019-09-08 22:00:00 13.8 8 Este 20 Este 0 -- -- 66
2019-09-08 21:00:00 16.2 12 Sudeste 25 Sudeste 0 -- -- 57
2019-09-08 20:00:00 20 15 Sudeste 24 Sudeste 0 -- -- 45
2019-09-08 19:00:00 22.2 12 Sudeste 23 Sudeste 0 -- -- 37
2019-09-08 18:00:00 22.7 9 Sudeste 20 Sudeste 0 -- -- 36
2019-09-08 17:00:00 22.5 8 Sur 21 Sur 0 -- -- 37
2019-09-08 16:00:00 22.1 12 Sudeste 29 Este 0 -- -- 37
2019-09-08 15:00:00 21.4 12 Este 31 Sudeste 0 -- -- 40
2019-09-08 14:00:00 20.8 12 Sudeste 26 Este 0 -- -- 45
2019-09-08 13:00:00 19.5 10 Sudeste 24 Sudeste 0 -- -- 49
2019-09-08 12:00:00 17.9 14 Este 22 Este 0 -- -- 56
2019-09-08 11:00:00 15.6 15 Este 24 Este 0 -- -- 63
2019-09-08 10:00:00 12 11 Este 19 Este 0 -- -- 78
2019-09-08 09:00:00 9.2 9 Este 13 Nordeste 0 -- -- 87
2019-09-08 08:00:00 6.1 8 Este 14 Este 0 -- -- 93
2019-09-08 07:00:00 6.4 11 Nordeste 13 Nordeste 0 -- -- 93
2019-09-08 06:00:00 6.3 8 Este 14 Nordeste 0 -- -- 92
2019-09-08 05:00:00 6.8 8 Este 10 Este 0 -- -- 89
2019-09-08 04:00:00 7.7 6 Este 12 Este 0 -- -- 86
2019-09-08 03:00:00 9.2 9 Este 15 Este 0 -- -- 82
2019-09-08 02:00:00 9.7 10 Este 24 Este 0 -- -- 80
2019-09-08 01:00:00 10.2 12 Este 21 Este 0 -- -- 77
2019-09-08 00:00:00 10.9 7 Sudeste 17 Este 0 -- -- 72
2019-09-07 23:00:00 11.9 11 Este 25 Este 0 -- -- 70
2019-09-07 22:00:00 12.9 17 Sudeste 28 Este 0 -- -- 68
2019-09-07 21:00:00 14.6 15 Sudeste 35 Sudeste 0 -- -- 60
2019-09-07 20:00:00 17 22 Este 42 Este 0 -- -- 50
2019-09-07 19:00:00 18.8 26 Sudeste 40 Este 0 -- -- 41
2019-09-07 18:00:00 20.1 26 Este 37 Este 0 -- -- 36
2019-09-07 17:00:00 21.1 22 Este 40 Sudeste 0 -- -- 29
2019-09-07 16:00:00 21.4 22 Este 39 Este 0 -- -- 26
2019-09-07 15:00:00 20.7 22 Este 41 Sudeste 0 -- -- 26
2019-09-07 14:00:00 19.1 28 Este 45 Sudeste 0 -- -- 30
2019-09-07 13:00:00 18.2 22 Este 38 Este 0 -- -- 36
2019-09-07 12:00:00 16.4 23 Este 36 Sudeste 0 -- -- 40
2019-09-07 11:00:00 13.8 19 Sudeste 28 Este 0 -- -- 47
2019-09-07 10:00:00 10.3 11 Sudeste 18 Sudeste 0 -- -- 62
2019-09-07 09:00:00 7.3 6 Sudeste 10 Sudeste 0 -- -- 81
2019-09-07 08:00:00 4.3 0 Calma 17 Este 0 -- -- 88
2019-09-07 07:00:00 5.9 11 Este 21 Este 0 -- -- 86
2019-09-07 06:00:00 7.2 15 Este 27 Este 0 -- -- 81
2019-09-07 05:00:00 7.3 17 Este 27 Sudeste 0 -- -- 78
2019-09-07 04:00:00 7.9 17 Este 28 Este 0 -- -- 75
2019-09-07 03:00:00 7.8 15 Este 26 Este 0 -- -- 76
2019-09-07 02:00:00 7.7 15 Este 23 Este 0 -- -- 77
2019-09-07 01:00:00 7.4 8 Sudeste 19 Este 0 -- -- 78
2019-09-07 00:00:00 8.8 13 Este 27 Este 0 -- -- 75
2019-09-06 23:00:00 9.5 16 Este 30 Este 0 -- -- 76
2019-09-06 22:00:00 10.6 17 Este 37 Este 0 -- -- 71
2019-09-06 21:00:00 12.4 19 Este 38 Este 0 -- -- 60
2019-09-06 20:00:00 14.4 26 Este 44 Este 0 -- -- 57
2019-09-06 19:00:00 15.8 29 Este 48 Sudeste 0 -- -- 54
2019-09-06 18:00:00 17.3 28 Este 42 Este 0 -- -- 49
2019-09-06 17:00:00 18 26 Este 44 Sudeste 0 -- -- 46
2019-09-06 16:00:00 17.9 27 Sudeste 48 Sudeste 0 -- -- 47
2019-09-06 15:00:00 17.4 26 Sudeste 46 Sudeste 0 -- -- 50
2019-09-06 14:00:00 17.3 24 Este 42 Este 0 -- -- 48
2019-09-06 13:00:00 16.9 22 Sudeste 41 Sudeste 0 -- -- 47
2019-09-06 12:00:00 -- 20 Este 39 Este 0 -- -- --
2019-09-06 11:00:00 14 26 Este 43 Este 0 -- -- 52
2019-09-06 10:00:00 11.4 15 Este 23 Este 0 -- -- 74
2019-09-06 09:00:00 8.8 10 Este 18 Sudeste 0 -- -- 86
2019-09-06 08:00:00 5.5 5 Este 11 Nordeste 0 -- -- 91
2019-09-06 07:00:00 5.8 4 Nordeste 14 Este 0 -- -- 90
2019-09-06 06:00:00 6.1 6 Nordeste 14 Este 0 -- -- 89
2019-09-06 05:00:00 6.3 8 Este 18 Este 0 -- -- 88
2019-09-06 04:00:00 8.2 12 Este 24 Este 0 -- -- 88
2019-09-06 03:00:00 8.6 10 Este 24 Este 0 -- -- 86
2019-09-06 02:00:00 9 13 Este 24 Sudeste 0 -- -- 87
2019-09-06 01:00:00 9.4 14 Este 24 Este 0 -- -- 84
2019-09-06 00:00:00 9.6 14 Este 25 Este 0 -- -- 86
2019-09-05 23:00:00 10.4 17 Este 28 Este 0 -- -- 77
2019-09-05 22:00:00 11.4 17 Este 33 Este 0 -- -- 73
2019-09-05 21:00:00 12.9 23 Este 41 Este 0 -- -- 69
2019-09-05 20:00:00 14.8 25 Este 43 Sudeste 0 -- -- 61
2019-09-05 19:00:00 17.2 28 Este 47 Este 0 -- -- 50
2019-09-05 18:00:00 18.1 31 Este 51 Sudeste 0 -- -- 43
2019-09-05 17:00:00 19.2 23 Este 39 Este 0 -- -- 41
2019-09-05 16:00:00 19.6 20 Este 38 Sudeste 0 -- -- 42
2019-09-05 15:00:00 18.8 23 Este 36 Este 0 -- -- 41
2019-09-05 14:00:00 18.2 23 Este 37 Este 0 -- -- 42
2019-09-05 13:00:00 17.5 21 Este 37 Este 0 -- -- 42
2019-09-05 12:00:00 16.7 16 Este 35 Este 0 -- -- 44
2019-09-05 11:00:00 15.5 19 Este 33 Este 0 -- -- 54
2019-09-05 10:00:00 13.1 9 Este 16 Este 0 -- -- 64
2019-09-05 09:00:00 9.9 8 Este 11 Nordeste 0 -- -- 83
2019-09-05 08:00:00 5.1 0 Calma -- -- 0 -- -- 91
2019-09-05 07:00:00 7.1 0 Calma 9 Nordeste 0 -- -- 86
2019-09-05 06:00:00 8.1 6 Nordeste 10 Nordeste 0 -- -- 89
2019-09-05 05:00:00 6.7 0 Calma -- -- 0 -- -- 92
2019-09-05 04:00:00 6.6 0 Calma -- -- 0 -- -- 89
2019-09-05 03:00:00 7.9 0 Calma -- -- 0 -- -- 88
2019-09-05 02:00:00 9.1 0 Calma -- -- 0 -- -- 82
2019-09-05 01:00:00 11.1 4 Sudeste 6 Sudeste 0 -- -- 80
2019-09-05 00:00:00 12 4 Este 22 Este 0 -- -- 77
2019-09-04 23:00:00 13.2 11 Este 24 Sudeste 0 -- -- 75
2019-09-04 22:00:00 14.5 11 Este 27 Este 0 -- -- 68
2019-09-04 21:00:00 16.3 14 Este 31 Sudeste 0 -- -- 62
2019-09-04 20:00:00 18.9 17 Sudeste 35 Este 0 -- -- 58
2019-09-04 19:00:00 20.9 23 Este 37 Este 0 -- -- 53
2019-09-04 18:00:00 23.2 24 Este 35 Sudeste 0 -- -- 43
2019-09-04 17:00:00 25.7 23 Sudeste 36 Sudeste 0 -- -- 35
2019-09-04 16:00:00 26.5 21 Sudeste 34 Sur 0 -- -- 33
2019-09-04 15:00:00 26.4 14 Sur 26 Sur 0 -- -- 31
2019-09-04 14:00:00 25.4 13 Sudeste 23 Sudeste 0 -- -- 31
2019-09-04 13:00:00 24.1 10 Sur 15 Sudeste 0 -- -- 31
2019-09-04 12:00:00 22.5 9 Sudeste 15 Sudeste 0 -- -- 35
2019-09-04 11:00:00 20.7 5 Sudeste 13 Este 0 -- -- 38
2019-09-04 10:00:00 17.7 8 Este 12 Este 0 -- -- 46
2019-09-04 09:00:00 12.9 3 Nordeste 5 Este 0 -- -- 70
2019-09-04 08:00:00 8.2 0 Calma -- -- 0 -- -- 80
2019-09-04 07:00:00 9.5 0 Calma 10 Este 0 -- -- 76
2019-09-04 06:00:00 10.4 8 Este 9 Este 0 -- -- 74
2019-09-04 05:00:00 10.7 5 Nordeste 10 Nordeste 0 -- -- 77
2019-09-04 04:00:00 11.9 9 Nordeste 17 Nordeste 0 -- -- 72
2019-09-04 03:00:00 15.1 14 Nordeste 17 Nordeste 0 -- -- 63
2019-09-04 02:00:00 14 12 Nordeste 17 Nordeste 0 -- -- 71
2019-09-04 01:00:00 14.1 14 Nordeste 15 Nordeste 0 -- -- 69
2019-09-04 00:00:00 15 11 Nordeste 15 Nordeste 0 -- -- 65
2019-09-03 23:00:00 16.8 10 Nordeste 12 Este 0 -- -- 58
2019-09-03 22:00:00 18.1 7 Este 13 Este 0 -- -- 45
2019-09-03 21:00:00 21.4 4 Sudeste 9 Sur 0 -- -- 30
2019-09-03 20:00:00 25.4 7 Sur 18 Sudeste 0 -- -- 25
2019-09-03 19:00:00 26.3 8 Sudeste 24 Sudeste 0 -- -- 24
2019-09-03 18:00:00 26.5 9 Sudeste 21 Sudeste 0 -- -- 23
2019-09-03 17:00:00 26.5 10 Sudeste 21 Este 0 -- -- 22
2019-09-03 16:00:00 25.8 8 Sudeste 21 Sudeste 0 -- -- 25
2019-09-03 15:00:00 24.2 9 Sudeste 20 Sudeste 0 -- -- 29
2019-09-03 14:00:00 22.8 9 Este 22 Sudeste 0 -- -- 32
2019-09-03 13:00:00 21.4 10 Este 20 Sudeste 0 -- -- 33
2019-09-03 12:00:00 19.7 8 Sudeste 19 Este 0 -- -- 39
2019-09-03 11:00:00 17.4 12 Este 20 Este 0 -- -- 47
2019-09-03 10:00:00 14 15 Este 23 Este 0 -- -- 64
2019-09-03 09:00:00 10.8 13 Este 20 Este 0 -- -- 78
2019-09-03 08:00:00 7.6 13 Este 16 Nordeste 0 -- -- 88
2019-09-03 07:00:00 7.9 10 Este 15 Este 0 -- -- 88
2019-09-03 06:00:00 8.6 7 Este 18 Este 0 -- -- 86
2019-09-03 05:00:00 9.4 14 Este 25 Este 0 -- -- 83
2019-09-03 04:00:00 10.1 17 Este 30 Este 0 -- -- 79
2019-09-03 03:00:00 10.2 15 Este 23 Este 0 -- -- 74
2019-09-03 02:00:00 10.5 15 Este 26 Este 0 -- -- 68
2019-09-03 01:00:00 10.9 13 Este 32 Este 0 -- -- 69
2019-09-03 00:00:00 11.7 18 Este 29 Este 0 -- -- 67
2019-09-02 23:00:00 12.5 16 Este 27 Sudeste 0 -- -- 73
2019-09-02 22:00:00 13.4 15 Este 32 Este 0 -- -- 67
2019-09-02 21:00:00 14.8 13 Este 34 Sudeste 0 -- -- 62
2019-09-02 20:00:00 17.2 22 Este 35 Sudeste 0 -- -- 53
2019-09-02 19:00:00 19.2 22 Este 36 Este 0 -- -- 49
2019-09-02 18:00:00 21.3 23 Sudeste 35 Sudeste 0 -- -- 43
2019-09-02 17:00:00 22 21 Este 33 Sudeste 0 -- -- 36
2019-09-02 16:00:00 21.5 21 Sudeste 34 Este 0 -- -- 34
2019-09-02 15:00:00 20.8 20 Este 38 Sudeste 0 -- -- 36
2019-09-02 14:00:00 19.8 23 Este 38 Este 0 -- -- 37
2019-09-02 13:00:00 18.6 22 Este 41 Este 0 -- -- 44
2019-09-02 12:00:00 16.6 21 Este 38 Este 0 -- -- 54
2019-09-02 11:00:00 14.8 24 Este 37 Este 0 -- -- 62
2019-09-02 10:00:00 13.3 21 Este 37 Este 0 -- -- 73
2019-09-02 09:00:00 11.3 19 Este 33 Sudeste 0 -- -- 83
2019-09-02 08:00:00 9.7 13 Este 26 Sudeste 0 -- -- 90
2019-09-02 07:00:00 9.8 15 Sudeste 26 Sudeste 0 -- -- 90
2019-09-02 06:00:00 10.1 16 Este 27 Sudeste 0 -- -- 87
2019-09-02 05:00:00 10.5 13 Este 30 Este 0 -- -- 86
2019-09-02 04:00:00 11.1 16 Este 28 Este 0 -- -- 81
2019-09-02 03:00:00 11.4 16 Este 28 Este 0 -- -- 79
2019-09-02 02:00:00 11.7 15 Este 36 Este 0 -- -- 77
2019-09-02 01:00:00 12.1 17 Este 32 Este 0 -- -- 74
2019-09-02 00:00:00 12.3 18 Este 30 Este 0 -- -- 75
2019-09-01 23:00:00 13.2 18 Este 32 Este 0 -- -- 75
2019-09-01 22:00:00 14.7 17 Este 33 Este 0 -- -- 68
2019-09-01 21:00:00 16.1 21 Este 37 Este 0 -- -- 66
2019-09-01 20:00:00 18.1 26 Este 43 Este 0 -- -- 63
2019-09-01 19:00:00 20.1 32 Sudeste 45 Sudeste 0 -- -- 59
2019-09-01 18:00:00 22.8 22 Sudeste 36 Sudeste 0 -- -- 50
2019-09-01 17:00:00 23.1 17 Sudeste 34 Sudeste 0 -- -- 48
2019-09-01 16:00:00 24.5 11 Sur 26 Este 0 -- -- 44
2019-09-01 15:00:00 23.4 12 Este 24 Sudeste 0 -- -- 49
2019-09-01 14:00:00 21.8 13 Este 26 Sudeste 0 -- -- 56
2019-09-01 13:00:00 19.9 16 Este 24 Sudeste 0 -- -- 63
2019-09-01 12:00:00 19 14 Sudeste 23 Este 0 -- -- 67
2019-09-01 11:00:00 18.3 12 Este 19 Este 0 -- -- 71
2019-09-01 10:00:00 16 9 Este 17 Nordeste 0 -- -- 83
2019-09-01 09:00:00 14.5 11 Nordeste 15 Nordeste 0 -- -- 89
2019-09-01 08:00:00 13.2 10 Nordeste 14 Nordeste 0 -- -- 93
2019-09-01 07:00:00 13.1 10 Nordeste 14 Este 0 -- -- 95
2019-09-01 06:00:00 13.5 12 Este 24 Este 0 -- -- 95
2019-09-01 05:00:00 13.1 11 Este 14 Este 0 -- -- 95
2019-09-01 04:00:00 13.8 10 Sudeste 14 Este 0 -- -- 94
2019-09-01 03:00:00 14.1 8 Sudeste 20 Sudeste 0 -- -- 92
2019-09-01 02:00:00 14.9 10 Sudeste 21 Este 0 -- -- 90
2019-09-01 01:00:00 15.7 12 Este 21 Este 0 -- -- 87
2019-09-01 00:00:00 16.3 13 Este 21 Este 0 -- -- 85
2019-08-31 23:00:00 17.1 13 Este 25 Sudeste 0 -- -- 81
2019-08-31 22:00:00 18.8 15 Este 28 Este 0 -- -- 72
2019-08-31 21:00:00 25.5 7 Noroeste 26 Oeste 0 -- -- 33
2019-08-31 20:00:00 28.9 16 Noroeste 36 Oeste 0 -- -- 27
2019-08-31 19:00:00 30.2 16 Oeste 29 Noroeste 0 -- -- 29
2019-08-31 18:00:00 29.3 21 Noroeste 35 Oeste 0 -- -- 29
2019-08-31 17:00:00 30.6 20 Noroeste 35 Oeste 0 -- -- 26
2019-08-31 16:00:00 29.8 21 Noroeste 41 Noroeste 0 -- -- 29
2019-08-31 15:00:00 29.7 16 Oeste 36 Noroeste 0 -- -- 32
2019-08-31 14:00:00 28.6 18 Noroeste 35 Oeste 0 -- -- 34
2019-08-31 13:00:00 27.9 18 Oeste 31 Oeste 0 -- -- 35
2019-08-31 12:00:00 26.7 10 Oeste 23 Oeste 0 -- -- 39
2019-08-31 11:00:00 23.9 4 Sur 11 Sur 0 -- -- 47
2019-08-31 10:00:00 20.7 4 Sudeste 9 Sudeste 0 -- -- 56
2019-08-31 09:00:00 17 6 Este 11 Nordeste 0 -- -- 73
2019-08-31 08:00:00 13.2 3 Nordeste 8 Nordeste 0 -- -- 83
2019-08-31 07:00:00 15.7 6 Nordeste 10 Nordeste 0 -- -- 74
2019-08-31 06:00:00 16.3 7 Nordeste 10 Nordeste 0 -- -- 76
2019-08-31 05:00:00 15.9 8 Nordeste 15 Este 0 -- -- 78
2019-08-31 04:00:00 16 10 Este 13 Nordeste 0 -- -- 75
2019-08-31 03:00:00 17 8 Nordeste 11 Nordeste 0 -- -- 71
2019-08-31 02:00:00 17.9 7 Nordeste 14 Nordeste 0 -- -- 61
2019-08-31 01:00:00 18.1 9 Nordeste 13 Nordeste 0 -- -- 59
2019-08-31 00:00:00 20 9 Noroeste 18 Oeste 0 -- -- 52
2019-08-30 23:00:00 22.6 12 Oeste 21 Sudoeste 0 -- -- 44
2019-08-30 22:00:00 22.4 10 Sudoeste 18 Sur 0 -- -- 45
2019-08-30 21:00:00 25.5 3 Sudoeste 8 Oeste 0 -- -- 36
2019-08-30 20:00:00 29.2 9 Oeste 23 Oeste 0 -- -- 30
2019-08-30 19:00:00 29.3 14 Noroeste 28 Oeste 0 -- -- 30
2019-08-30 18:00:00 29.8 15 Noroeste 24 Oeste 0 -- -- 29
2019-08-30 17:00:00 29.9 13 Noroeste 34 Oeste 0 -- -- 31
2019-08-30 16:00:00 29.9 15 Noroeste 37 Noroeste 0 -- -- 32
2019-08-30 15:00:00 29.3 20 Noroeste 31 Oeste 0 -- -- 31
2019-08-30 14:00:00 28.9 16 Oeste 26 Noroeste 0 -- -- 33
2019-08-30 13:00:00 27.4 6 Sudoeste 16 Sur 0 -- -- 44
2019-08-30 12:00:00 24.9 5 Sudeste 12 Sur 0 -- -- 52
2019-08-30 11:00:00 22.1 5 Sudeste 13 Sudeste 0 -- -- 60
2019-08-30 10:00:00 19.5 8 Sudeste 11 Este 0 -- -- 70
2019-08-30 09:00:00 16.6 6 Este 12 Nordeste 0 -- -- 86
2019-08-30 08:00:00 14.3 9 Este 12 Este 0 -- -- 91
2019-08-30 07:00:00 14.3 11 Este 13 Este 0 -- -- 94
2019-08-30 06:00:00 14.6 11 Este 14 Este 0 -- -- 94
2019-08-30 05:00:00 15 12 Este 15 Este 0 -- -- 94
2019-08-30 04:00:00 15.8 11 Este 19 Este 0 -- -- 92
2019-08-30 03:00:00 16.4 11 Este 17 Este 0 -- -- 90
2019-08-30 02:00:00 17.3 13 Este 21 Este 0 -- -- 87
2019-08-30 01:00:00 17.8 9 Este 21 Este 0 -- -- 85
2019-08-30 00:00:00 18.5 10 Este 15 Este 0 -- -- 82
2019-08-29 23:00:00 19.2 12 Este 18 Este 0 -- -- 79
2019-08-29 22:00:00 20.9 14 Este 22 Este 0 -- -- 69
2019-08-29 21:00:00 24.7 2 Norte 8 Oeste 0 -- -- 41
2019-08-29 20:00:00 28.6 7 Noroeste 21 Oeste 0 -- -- 33
2019-08-29 19:00:00 29.3 10 Noroeste 29 Noroeste 0 -- -- 31
2019-08-29 18:00:00 29.5 13 Oeste 26 Oeste 0 -- -- 31
2019-08-29 17:00:00 29.3 16 Oeste 30 Oeste 0 -- -- 30
2019-08-29 16:00:00 28.8 13 Noroeste 30 Oeste 0 -- -- 33
2019-08-29 15:00:00 28.3 13 Oeste 34 Oeste 0 -- -- 35
2019-08-29 14:00:00 27.3 10 Oeste 23 Sur 0 -- -- 39
2019-08-29 13:00:00 25.2 9 Sur 19 Sudeste 0 -- -- 53
2019-08-29 12:00:00 23.1 10 Sur 18 Sur 0 -- -- 59
2019-08-29 11:00:00 21.1 10 Sudeste 17 Sudeste 0 -- -- 67
2019-08-29 10:00:00 19.2 11 Sudeste 18 Sudeste 0 -- -- 79
2019-08-29 09:00:00 16.7 11 Este 14 Este 0 -- -- 91
2019-08-29 08:00:00 14.6 10 Este 14 Este 0 -- -- 96
2019-08-29 07:00:00 14.7 10 Este 14 Nordeste 0 -- -- 96
2019-08-29 06:00:00 15.1 11 Este 14 Este 0 -- -- 96
2019-08-29 05:00:00 15.7 8 Este 15 Este 0 -- -- 93
2019-08-29 04:00:00 16.1 8 Este 18 Este 0 -- -- 93
2019-08-29 03:00:00 16 11 Este 19 Este 0 -- -- 92
2019-08-29 02:00:00 16.1 10 Este 15 Este 0 -- -- 90
2019-08-29 01:00:00 16.7 7 Este 15 Este 0 -- -- 86
2019-08-29 00:00:00 17.6 13 Este 18 Este 0 -- -- 83
2019-08-28 23:00:00 20 11 Este 18 Este 0 -- -- 72
2019-08-28 22:00:00 21.2 3 Sur 4 Sur 0 -- -- 56
2019-08-28 21:00:00 23.2 2 Sudoeste 7 Noroeste 0 -- -- 49
2019-08-28 20:00:00 26.2 7 Oeste 20 Oeste 0 -- -- 42
2019-08-28 19:00:00 27.2 13 Noroeste 23 Oeste 0 -- -- 39
2019-08-28 18:00:00 27.4 10 Oeste 32 Noroeste 0 -- -- 39
2019-08-28 17:00:00 27.7 13 Oeste 34 Noroeste 0 -- -- 39
2019-08-28 16:00:00 27.1 17 Oeste 31 Oeste 0 -- -- 40
2019-08-28 15:00:00 25.8 15 Noroeste 35 Noroeste 0 -- -- 45
2019-08-28 14:00:00 25.1 16 Oeste 33 Oeste 0 -- -- 48
2019-08-28 13:00:00 24.5 15 Oeste 26 Noroeste 0 -- -- 49
2019-08-28 12:00:00 23.3 11 Oeste 21 Oeste 0 -- -- 54
2019-08-28 11:00:00 21.2 4 Sur 7 Sur 0 -- -- 64
2019-08-28 10:00:00 18.4 4 Sudeste 9 Este 0 -- -- 75
2019-08-28 09:00:00 15.8 7 Este 10 Este 0 -- -- 88
2019-08-28 08:00:00 13.6 9 Nordeste 12 Nordeste 0 -- -- 94
2019-08-28 07:00:00 13 10 Nordeste 12 Nordeste 0 -- -- 94
2019-08-28 06:00:00 13.7 10 Nordeste 12 Nordeste 0 -- -- 95
2019-08-28 05:00:00 13.7 10 Este 12 Nordeste 0 -- -- 94
2019-08-28 04:00:00 14.1 11 Nordeste 14 Nordeste 0 -- -- 93
2019-08-28 03:00:00 14.1 10 Este 11 Este 0 -- -- 91
2019-08-28 02:00:00 14.8 10 Este 13 Este 0 -- -- 90
2019-08-28 01:00:00 15.5 9 Este 11 Este 0 -- -- 86
2019-08-28 00:00:00 16.4 7 Este 10 Este 0 -- -- 81
2019-08-27 23:00:00 17.2 6 Este 10 Este 0 -- -- 73
2019-08-27 22:00:00 18.3 5 Este 10 Este 0 -- -- 62
2019-08-27 21:00:00 21.6 3 Sudeste 16 Sudeste 0 -- -- 50
2019-08-27 20:00:00 23.6 11 Sudeste 20 Sur 0 -- -- 44
2019-08-27 19:00:00 25.2 7 Sudoeste 21 Sur 0 -- -- 38
2019-08-27 18:00:00 25.4 6 Sudeste 21 Sur 0 -- -- 39
2019-08-27 17:00:00 24.5 10 Sudeste 21 Sudeste 0 -- -- 40
2019-08-27 16:00:00 23.7 5 Sudoeste 21 Sudoeste 0 -- -- 41
2019-08-27 15:00:00 23.7 8 Sur 24 Sur 0 -- -- 40
2019-08-27 14:00:00 23.7 9 Este 15 Este 0 -- -- 42
2019-08-27 13:00:00 22.7 5 Sudeste 14 Sur 0 -- -- 44
2019-08-27 12:00:00 21.5 4 Sur 17 Este 0 -- -- 49
2019-08-27 11:00:00 19.4 6 Este 13 Este 0 -- -- 56
2019-08-27 10:00:00 17.5 4 Este 8 Nordeste 0 -- -- 66
2019-08-27 09:00:00 13.9 6 Nordeste 12 Nordeste 0 -- -- 80
2019-08-27 08:00:00 11.9 8 Nordeste 13 Nordeste 0 -- -- 83
2019-08-27 07:00:00 11.5 8 Nordeste 14 Nordeste 0 -- -- 86
2019-08-27 06:00:00 12.6 11 Nordeste 16 Nordeste 0 -- -- 81
2019-08-27 05:00:00 12.2 9 Nordeste 14 Nordeste 0 -- -- 85
2019-08-27 04:00:00 11.7 11 Nordeste 19 Nordeste 0 -- -- 89
2019-08-27 03:00:00 12 13 Nordeste 17 Nordeste 0 -- -- 88
2019-08-27 02:00:00 12.3 10 Nordeste 13 Nordeste 0 -- -- 86
2019-08-27 01:00:00 13.7 7 Sudeste 24 Sur 0 -- -- 86
2019-08-27 00:00:00 13.8 2 Nordeste 10 Este 0 -- -- 87
2019-08-26 23:00:00 14.6 6 Este 15 Sur 0 -- -- 86
2019-08-26 22:00:00 15.5 0 Calma 54 Sur 0 -- -- 84
2019-08-26 21:00:00 17.7 12 Este 15 Nordeste 0 -- -- 80
2019-08-26 20:00:00 16.5 0 Calma 38 Sur 4.2 -- -- 87
2019-08-26 19:00:00 23.3 3 Nordeste 12 Sur 0.8 -- -- 59
2019-08-26 18:00:00 23.8 6 Sur 15 Sudeste 0 -- -- 45
2019-08-26 17:00:00 24.3 7 Este 24 Oeste 0 -- -- 45
2019-08-26 16:00:00 23.5 14 Oeste 25 Oeste 0 -- -- 50
2019-08-26 15:00:00 21.9 8 Oeste 19 Oeste 0 -- -- 57
2019-08-26 14:00:00 21.1 12 Noroeste 27 Oeste 0 -- -- 61
2019-08-26 13:00:00 21.4 10 Nordeste 24 Nordeste 0 -- -- 62
2019-08-26 12:00:00 19.9 17 Nordeste 24 Este 0 -- -- 67
2019-08-26 11:00:00 18.1 11 Este 23 Oeste 0 -- -- 73
2019-08-26 10:00:00 15 17 Oeste 28 Oeste 0 -- -- 89
2019-08-26 09:00:00 14.9 14 Sudoeste 24 Oeste 0 -- -- 92
2019-08-26 08:00:00 14.1 8 Sur 13 Nordeste 0 -- -- 94
2019-08-26 07:00:00 14.3 9 Nordeste 14 Noroeste 0 -- -- 90
2019-08-26 06:00:00 14.9 9 Norte 19 Norte 0 -- -- 84
2019-08-26 05:00:00 15.1 8 Norte 12 Norte 0 -- -- 85
2019-08-26 04:00:00 15.2 8 Norte 21 Norte 0 -- -- 86
2019-08-26 03:00:00 15 10 Norte 26 Norte 0 -- -- 88
2019-08-26 02:00:00 14.8 13 Norte 28 Norte 0.4 -- -- 91
2019-08-26 01:00:00 15.6 13 Norte 25 Norte 0.2 -- -- 89
2019-08-26 00:00:00 16.1 10 Noroeste 23 Noroeste 0 -- -- 83
2019-08-25 23:00:00 15.8 13 Noroeste 25 Nordeste 0 -- -- 86
2019-08-25 22:00:00 16.8 16 Nordeste 24 Nordeste 0.2 -- -- 79
2019-08-25 21:00:00 17.6 14 Nordeste 39 Este 1.2 -- -- 78
2019-08-25 20:00:00 19.7 19 Este 41 Este 0 -- -- 64
2019-08-25 19:00:00 19.8 20 Este 31 Este 0 -- -- 65
2019-08-25 18:00:00 19.2 11 Norte 69 Sudoeste 1.4 -- -- 73
2019-08-25 17:00:00 27.1 10 Este 47 Sudeste 0 -- -- 34
2019-08-25 16:00:00 28.8 6 Nordeste 19 Sudoeste 0 -- -- 30
2019-08-25 15:00:00 26.8 6 Sudeste 22 Sudeste 0 -- -- 35
2019-08-25 14:00:00 27.4 14 Sudeste 24 Sudeste 0 -- -- 35
2019-08-25 13:00:00 25.4 10 Sudeste 21 Sudeste 0 -- -- 39
2019-08-25 12:00:00 22.6 12 Sudeste 23 Sudeste 0 -- -- 45
2019-08-25 11:00:00 21.9 12 Sudeste 24 Sudeste 0 -- -- 46
2019-08-25 10:00:00 20 14 Este 23 Este 0 -- -- 51
2019-08-25 09:00:00 19.7 12 Este 18 Este 0 -- -- 51
2019-08-25 08:00:00 18 13 Este 18 Este 0 -- -- 55
2019-08-25 07:00:00 17.2 11 Este 16 Este 0 -- -- 58
2019-08-25 06:00:00 17.7 12 Este 15 Este 0 -- -- 58
2019-08-25 05:00:00 17.5 11 Nordeste 15 Este 0 -- -- 60
2019-08-25 04:00:00 16.7 12 Este 15 Nordeste 0 -- -- 63
2019-08-25 03:00:00 17.2 10 Este 15 Este 0 -- -- 62
2019-08-25 02:00:00 17.5 8 Este 12 Este 0 -- -- 64
2019-08-25 01:00:00 18.6 10 Este 14 Nordeste 0 -- -- 63
2019-08-25 00:00:00 19.9 11 Nordeste 20 Nordeste 0 -- -- 58
2019-08-24 23:00:00 19.3 4 Noroeste 12 Noroeste 0 -- -- 44
2019-08-24 22:00:00 22.2 3 Sudoeste 7 Sudoeste 0 -- -- 38
2019-08-24 21:00:00 26.3 2 Oeste 15 Oeste 0 -- -- 31
2019-08-24 20:00:00 28.8 9 Oeste 23 Oeste 0 -- -- 26
2019-08-24 19:00:00 29.5 13 Oeste 22 Oeste 0 -- -- 26
2019-08-24 18:00:00 29.8 7 Noroeste 24 Oeste 0 -- -- 25
2019-08-24 17:00:00 31.1 16 Oeste 33 Oeste 0 -- -- 23
2019-08-24 16:00:00 31.3 16 Oeste 50 Noroeste 0 -- -- 24
2019-08-24 15:00:00 30.5 9 Oeste 33 Oeste 0 -- -- 25
2019-08-24 14:00:00 29.7 10 Sur 21 Sudeste 0 -- -- 27
2019-08-24 13:00:00 28 8 Sudeste 19 Sudeste 0 -- -- 29
2019-08-24 12:00:00 26.2 8 Sudeste 17 Sudeste 0 -- -- 34
2019-08-24 11:00:00 24.5 11 Sudeste 21 Sudeste 0 -- -- 37
2019-08-24 10:00:00 22.6 10 Sudeste 17 Sudeste 0 -- -- 40
2019-08-24 09:00:00 19.3 9 Este 13 Nordeste 0 -- -- 44
2019-08-24 08:00:00 15.9 11 Nordeste 15 Nordeste 0 -- -- 50
2019-08-24 07:00:00 16.3 10 Nordeste 14 Nordeste 0 -- -- 47
2019-08-24 06:00:00 16.3 12 Nordeste 15 Nordeste 0 -- -- 48
2019-08-24 05:00:00 15.9 12 Nordeste 14 Este 0 -- -- 50
2019-08-24 04:00:00 17 12 Nordeste 14 Este 0 -- -- 48
2019-08-24 03:00:00 16.9 12 Este 15 Este 0 -- -- 50
2019-08-24 02:00:00 15.9 10 Este 13 Nordeste 0 -- -- 55
2019-08-24 01:00:00 17.4 9 Este 13 Este 0 -- -- 51
2019-08-24 00:00:00 18 8 Este 10 Este 0 -- -- 49
2019-08-23 23:00:00 19.6 6 Este 11 Este 0 -- -- 43
2019-08-23 22:00:00 22 5 Este 19 Este 0 -- -- 33
2019-08-23 21:00:00 25.8 3 Sudoeste 13 Sudoeste 0 -- -- 22
2019-08-23 20:00:00 29.8 8 Oeste 19 Sudoeste 0 -- -- 17
2019-08-23 19:00:00 30.4 11 Sur 22 Sur 0 -- -- 17
2019-08-23 18:00:00 31 5 Sudeste 25 Noroeste 0 -- -- 15
2019-08-23 17:00:00 30.7 10 Oeste 24 Sudoeste 0 -- -- 16
2019-08-23 16:00:00 30.3 7 Este 26 Este 0 -- -- 17
2019-08-23 15:00:00 29 5 Este 18 Este 0 -- -- 18
2019-08-23 14:00:00 28.1 14 Sur 21 Sudeste 0 -- -- 21
2019-08-23 13:00:00 26.4 9 Sudeste 15 Sudeste 0 -- -- 27
2019-08-23 12:00:00 24.3 6 Sudeste 19 Sudeste 0 -- -- 32
2019-08-23 11:00:00 22.2 10 Sur 18 Sudeste 0 -- -- 35
2019-08-23 10:00:00 21.1 9 Sudeste 14 Sudeste 0 -- -- 34
2019-08-23 09:00:00 16.9 10 Nordeste 16 Nordeste 0 -- -- 38
2019-08-23 08:00:00 14.9 12 Nordeste 17 Nordeste 0 -- -- 37
2019-08-23 07:00:00 13.4 13 Nordeste 17 Nordeste 0 -- -- 40
2019-08-23 06:00:00 13.3 15 Nordeste 18 Nordeste 0 -- -- 44
2019-08-23 05:00:00 13.6 11 Nordeste 18 Nordeste 0 -- -- 49
2019-08-23 04:00:00 13.2 12 Nordeste 22 Nordeste 0 -- -- 63
2019-08-23 03:00:00 13.5 15 Nordeste 18 Nordeste 0 -- -- 68
2019-08-23 02:00:00 13.5 8 Este 14 Nordeste 0 -- -- 66
2019-08-23 01:00:00 14.4 9 Nordeste 14 Este 0 -- -- 63
2019-08-23 00:00:00 15.8 9 Este 15 Este 0 -- -- 53